Terminal Aerodrome Forecast
Issued by NWS

Home | Current Version | Previous Version | Text Only | Print | Product List | Glossary On
Versions: 1 2 3 4 5 6 7 8 9 10 11 12 13 14 15 16 17 18 19 20 21
000
FTUS45 KTWC 290500
TAFOLS
TAF
KOLS 290536Z 2906/3006 VRB03KT P6SM BKN130 OVC250
     FM290900 VRB03KT P6SM BKN120 OVC200
     FM291700 17011G18KT P6SM BKN090 OVC140
     FM300200 15008KT P6SM BKN060 OVC100=

USA.gov is the U.S. government's official web portal to all federal, state and local government web resources and services.